Time;durP1;ratioP1;P1;durP2;ratioP2;P2;SDS_P1;SDS_P2;PMS_P1;PMS_P2;Temp;Humidity;BMP_temperature;BMP_pressure;BME280_temperature;BME280_humidity;BME280_pressure;Samples;Min_cycle;Max_cycle;Signal;HPM_P1;HPM_P2
2023/02/25 00:00:21;;;;;;;6.22;2.10;;;6.40;99.90;;;;;;5052617;28;20172;-77
2023/02/25 00:02:50;;;;;;;10.95;2.33;;;6.40;99.90;;;;;;5055501;28;20191;-76
2023/02/25 00:05:17;;;;;;;13.23;2.20;;;6.30;99.90;;;;;;5057108;28;20179;-86
2023/02/25 00:07:42;;;;;;;7.88;2.22;;;6.40;99.90;;;;;;5056819;28;20224;-78
2023/02/25 00:10:11;;;;;;;11.02;2.03;;;6.20;99.90;;;;;;5056630;28;20207;-86
2023/02/25 00:13:12;;;;;;;7.60;1.83;;;6.00;99.90;;;;;;5055584;28;20225;-84
2023/02/25 00:15:40;;;;;;;7.35;2.03;;;6.10;99.90;;;;;;5034789;28;20278;-80
2023/02/25 00:18:06;;;;;;;9.90;2.22;;;6.20;99.90;;;;;;5052316;28;20207;-79
2023/02/25 00:20:31;;;;;;;7.88;1.95;;;6.30;99.90;;;;;;5056517;28;20190;-78
2023/02/25 00:22:57;;;;;;;5.70;1.38;;;6.20;99.90;;;;;;5056182;28;20250;-79
2023/02/25 00:25:27;;;;;;;6.55;1.38;;;6.00;99.90;;;;;;5056402;28;20607;-82
2023/02/25 00:27:53;;;;;;;6.03;1.42;;;6.00;99.90;;;;;;5056345;28;20225;-79
2023/02/25 00:30:18;;;;;;;10.98;1.52;;;6.00;99.90;;;;;;5055797;28;20254;-77
2023/02/25 00:32:44;;;;;;;4.70;1.08;;;6.10;99.90;;;;;;5055779;28;20195;-77
2023/02/25 00:35:11;;;;;;;4.68;1.00;;;6.00;99.90;;;;;;5055847;28;20171;-81
2023/02/25 00:37:37;;;;;;;5.78;1.58;;;5.90;99.90;;;;;;5055889;28;20163;-77
2023/02/25 00:40:07;;;;;;;6.47;1.70;;;5.90;99.90;;;;;;5056014;28;20653;-78
2023/02/25 00:42:33;;;;;;;6.72;0.80;;;5.90;99.90;;;;;;5055733;28;20183;-79
2023/02/25 00:44:59;;;;;;;5.80;1.60;;;6.00;99.90;;;;;;5055742;28;20217;-78
2023/02/25 00:47:24;;;;;;;7.40;1.30;;;6.20;99.90;;;;;;5054145;28;20191;-78
2023/02/25 00:49:51;;;;;;;8.07;1.60;;;6.10;99.90;;;;;;5055609;28;20218;-78
2023/02/25 00:52:16;;;;;;;5.00;1.20;;;6.20;99.90;;;;;;5056015;28;20159;-77
2023/02/25 00:54:42;;;;;;;5.75;1.48;;;6.30;99.90;;;;;;5055534;28;20166;-78
2023/02/25 00:57:08;;;;;;;8.75;1.25;;;6.20;99.90;;;;;;5055712;28;20632;-86
2023/02/25 00:59:34;;;;;;;6.72;1.38;;;6.40;99.90;;;;;;5056077;28;20164;-77
2023/02/25 01:01:59;;;;;;;8.15;1.35;;;6.30;99.90;;;;;;5055321;28;20179;-78
2023/02/25 01:04:25;;;;;;;4.93;1.23;;;6.50;99.90;;;;;;5055259;28;20186;-78
2023/02/25 01:06:50;;;;;;;10.05;1.35;;;6.30;99.90;;;;;;5055750;28;20171;-80
2023/02/25 01:09:16;;;;;;;11.75;1.00;;;6.30;99.90;;;;;;5055629;28;20243;-78
2023/02/25 01:11:45;;;;;;;7.25;1.67;;;6.20;99.90;;;;;;5055224;28;20171;-85
2023/02/25 01:14:18;;;;;;;5.18;1.92;;;6.00;99.90;;;;;;5054436;28;20205;-79
2023/02/25 01:16:44;;;;;;;4.00;1.50;;;6.00;99.90;;;;;;5055363;28;20178;-77
2023/02/25 01:19:19;;;;;;;9.85;1.52;;;6.20;99.90;;;;;;5055719;28;20193;-86
2023/02/25 01:21:46;;;;;;;10.65;1.65;;;6.10;99.90;;;;;;5055669;28;20163;-80
2023/02/25 01:24:14;;;;;;;6.05;0.90;;;6.20;99.90;;;;;;5055296;28;20183;-87
2023/02/25 01:26:42;;;;;;;14.23;1.38;;;6.20;99.90;;;;;;5053920;28;20217;-78
2023/02/25 01:29:09;;;;;;;6.93;1.30;;;6.10;99.90;;;;;;5055072;28;20167;-78
2023/02/25 01:31:36;;;;;;;6.50;1.58;;;6.10;99.90;;;;;;5053870;28;20225;-77
2023/02/25 01:34:03;;;;;;;6.93;1.45;;;6.20;99.90;;;;;;5055157;28;20205;-87
2023/02/25 01:36:30;;;;;;;6.95;1.00;;;6.20;99.90;;;;;;5053989;28;20659;-77
2023/02/25 01:38:56;;;;;;;9.77;1.30;;;6.30;99.90;;;;;;5054627;28;20168;-77
2023/02/25 01:41:23;;;;;;;10.50;2.72;;;6.30;99.90;;;;;;5054639;28;20209;-78
2023/02/25 01:44:16;;;;;;;3.67;1.17;;;6.40;99.90;;;;;;5054569;28;20191;-78
2023/02/25 01:46:44;;;;;;;8.60;1.15;;;6.20;99.90;;;;;;5054844;28;20746;-77
2023/02/25 01:49:21;;;;;;;8.00;1.17;;;6.20;99.90;;;;;;5054573;28;20167;-79
2023/02/25 01:51:50;;;;;;;13.65;1.75;;;6.20;99.90;;;;;;5053365;28;20579;-81
2023/02/25 01:54:17;;;;;;;10.15;1.45;;;6.00;99.90;;;;;;5052983;28;20702;-77
2023/02/25 01:56:53;;;;;;;12.40;1.15;;;6.10;99.90;;;;;;5054938;28;20163;-77
2023/02/25 01:59:22;;;;;;;7.95;1.23;;;6.10;99.90;;;;;;5054531;28;20162;-86
2023/02/25 02:01:48;;;;;;;5.95;1.20;;;6.00;99.90;;;;;;5054562;28;20163;-81
2023/02/25 02:04:15;;;;;;;6.45;1.23;;;5.90;99.90;;;;;;5054165;28;20183;-81
2023/02/25 02:06:46;;;;;;;6.53;1.35;;;6.10;99.90;;;;;;5054261;28;20258;-78
2023/02/25 02:09:16;;;;;;;4.55;0.93;;;6.10;99.90;;;;;;5054087;28;20500;-78
2023/02/25 02:11:42;;;;;;;10.40;1.60;;;6.20;99.90;;;;;;5053213;28;20600;-79
2023/02/25 02:14:11;;;;;;;8.85;1.55;;;6.40;99.90;;;;;;5054237;28;20262;-77
2023/02/25 02:16:43;;;;;;;11.00;1.48;;;6.40;99.90;;;;;;5054258;28;20257;-86
2023/02/25 02:19:23;;;;;;;15.25;1.40;;;6.40;99.90;;;;;;5054604;28;20177;-83
2023/02/25 02:22:08;;;;;;;5.38;1.45;;;6.30;99.90;;;;;;5054372;28;20178;-86
2023/02/25 02:25:01;;;;;;;12.50;1.80;;;6.20;99.90;;;;;;5053494;28;20201;-79
2023/02/25 02:28:10;;;;;;;6.55;1.83;;;6.00;99.90;;;;;;5054561;28;20231;-87
2023/02/25 02:31:14;;;;;;;11.55;1.98;;;6.10;99.90;;;;;;5052777;28;20207;-86
2023/02/25 02:34:25;;;;;;;7.82;1.42;;;6.00;99.90;;;;;;5038032;28;20203;-85
2023/02/25 02:36:56;;;;;;;7.78;1.70;;;5.90;99.90;;;;;;5053679;28;20612;-80
2023/02/25 02:39:43;;;;;;;19.50;2.40;;;6.00;99.90;;;;;;5053642;28;20168;-78
2023/02/25 02:42:26;;;;;;;20.27;2.00;;;5.90;99.90;;;;;;5053673;28;20623;-84
2023/02/25 02:45:03;;;;;;;6.63;1.95;;;5.90;99.90;;;;;;5053873;28;20746;-86
2023/02/25 02:47:47;;;;;;;7.85;2.60;;;6.00;99.90;;;;;;5090684;27;21397;-85
2023/02/25 02:50:25;;;;;;;13.70;1.88;;;6.10;99.90;;;;;;5090625;28;20239;-77
2023/02/25 02:52:54;;;;;;;10.48;2.55;;;6.10;99.90;;;;;;5090604;28;20254;-77
2023/02/25 02:55:25;;;;;;;7.90;1.85;;;6.20;99.90;;;;;;5090826;28;20161;-77
2023/02/25 02:57:59;;;;;;;6.60;1.45;;;6.20;99.90;;;;;;5089443;28;20158;-77
2023/02/25 03:00:29;;;;;;;13.48;1.65;;;6.10;99.90;;;;;;5090477;28;20162;-82
2023/02/25 03:03:06;;;;;;;16.27;1.75;;;6.20;99.90;;;;;;5090516;28;20185;-86
2023/02/25 03:05:33;;;;;;;13.10;2.50;;;6.30;99.90;;;;;;5089284;28;20300;-77
2023/02/25 03:08:31;;;;;;;9.43;2.17;;;6.50;99.90;;;;;;5089904;28;20185;-86
2023/02/25 03:10:56;;;;;;;8.80;1.73;;;6.50;99.90;;;;;;5090092;28;20210;-76
2023/02/25 03:13:22;;;;;;;8.55;2.08;;;6.40;99.90;;;;;;5090223;28;20189;-78
2023/02/25 03:15:48;;;;;;;11.27;1.83;;;6.50;99.90;;;;;;5090341;28;20298;-77
2023/02/25 03:18:35;;;;;;;8.30;2.13;;;6.30;99.90;;;;;;5090200;28;20173;-77
2023/02/25 03:21:05;;;;;;;7.35;1.90;;;6.30;99.90;;;;;;5089934;28;20618;-76
2023/02/25 03:23:35;;;;;;;4.65;2.80;;;6.30;99.90;;;;;;5090112;28;20208;-81
2023/02/25 03:26:11;;;;;;;5.85;1.42;;;6.30;99.90;;;;;;5089579;28;20219;-76
2023/02/25 03:28:37;;;;;;;8.05;1.65;;;6.50;99.90;;;;;;5088224;28;20178;-78
2023/02/25 03:31:28;;;;;;;12.88;1.83;;;6.40;99.90;;;;;;5089874;28;20193;-76
2023/02/25 03:33:58;;;;;;;18.15;1.73;;;6.60;99.90;;;;;;5088840;28;20290;-86
2023/02/25 03:36:32;;;;;;;10.48;1.88;;;6.60;99.90;;;;;;5089964;28;20224;-87
2023/02/25 03:39:03;;;;;;;14.25;2.97;;;6.50;99.90;;;;;;5089971;28;20166;-81
2023/02/25 03:41:34;;;;;;;11.13;1.33;;;6.60;99.90;;;;;;5088595;28;20528;-77
2023/02/25 03:44:03;;;;;;;3.65;1.25;;;6.60;99.90;;;;;;5089551;28;20215;-80
2023/02/25 03:46:31;;;;;;;11.57;1.80;;;6.50;99.90;;;;;;5088112;28;20252;-76
2023/02/25 03:48:58;;;;;;;12.63;1.73;;;6.30;99.90;;;;;;5089373;28;20231;-77
2023/02/25 03:51:33;;;;;;;6.50;1.42;;;6.40;99.90;;;;;;5089968;28;20246;-78
2023/02/25 03:53:58;;;;;;;10.35;1.77;;;6.40;99.90;;;;;;5089549;28;20238;-84
2023/02/25 03:56:24;;;;;;;9.25;1.40;;;6.40;99.90;;;;;;5088319;28;20170;-85
2023/02/25 03:58:50;;;;;;;15.38;2.85;;;6.30;99.90;;;;;;5076457;28;20163;-86
2023/02/25 04:01:20;;;;;;;9.00;1.73;;;6.20;99.90;;;;;;5076168;28;20208;-82
2023/02/25 04:03:46;;;;;;;16.35;1.95;;;6.20;99.90;;;;;;5075961;28;20190;-78
2023/02/25 04:06:12;;;;;;;12.98;1.70;;;6.30;99.90;;;;;;5075865;28;20198;-85
2023/02/25 04:08:38;;;;;;;10.50;1.38;;;6.40;99.90;;;;;;5075924;28;20192;-80
2023/02/25 04:11:04;;;;;;;3.97;1.40;;;6.30;99.90;;;;;;5076155;28;20181;-85
2023/02/25 04:13:29;;;;;;;4.55;1.48;;;6.40;99.90;;;;;;5076009;28;20190;-85
2023/02/25 04:15:55;;;;;;;10.80;2.00;;;6.40;99.90;;;;;;5075511;28;20166;-77
2023/02/25 04:18:21;;;;;;;9.85;1.60;;;6.40;99.90;;;;;;5074348;28;20174;-86
2023/02/25 04:20:47;;;;;;;11.80;2.28;;;6.50;99.90;;;;;;5075595;28;20208;-85
2023/02/25 04:23:14;;;;;;;7.70;1.50;;;6.40;99.90;;;;;;5074148;28;20190;-81
2023/02/25 04:25:40;;;;;;;12.45;2.03;;;6.50;99.90;;;;;;5075675;28;20185;-87
2023/02/25 04:28:05;;;;;;;9.52;1.73;;;6.50;99.90;;;;;;5075329;28;20163;-84
2023/02/25 04:30:31;;;;;;;10.75;1.85;;;6.50;99.90;;;;;;5075642;28;20162;-76
2023/02/25 04:32:57;;;;;;;17.05;3.85;;;6.50;99.90;;;;;;5075064;28;20190;-85
2023/02/25 04:35:22;;;;;;;6.90;1.27;;;6.50;99.90;;;;;;5073432;28;20202;-83
2023/02/25 04:37:48;;;;;;;3.88;1.17;;;6.50;99.90;;;;;;5074586;28;20219;-77
2023/02/25 04:40:16;;;;;;;10.75;2.25;;;6.40;99.90;;;;;;5074477;28;20178;-86
2023/02/25 04:42:42;;;;;;;19.50;2.05;;;6.40;99.90;;;;;;5074501;28;20216;-81
2023/02/25 04:45:09;;;;;;;12.98;2.05;;;6.40;99.90;;;;;;5074613;28;20173;-76
2023/02/25 04:47:35;;;;;;;11.63;2.40;;;6.40;99.90;;;;;;5074685;28;20206;-76
2023/02/25 04:50:02;;;;;;;6.97;2.42;;;6.50;99.90;;;;;;5074694;28;20171;-76
2023/02/25 04:52:27;;;;;;;16.63;3.45;;;6.50;99.90;;;;;;5074277;28;20240;-76
2023/02/25 04:54:53;;;;;;;8.63;2.20;;;6.50;99.90;;;;;;5074600;28;20567;-77
2023/02/25 04:57:18;;;;;;;8.95;2.40;;;6.60;99.90;;;;;;5074508;28;20167;-84
2023/02/25 04:59:44;;;;;;;8.68;1.95;;;6.60;99.90;;;;;;5073304;28;21199;-76
2023/02/25 05:02:10;;;;;;;20.67;2.25;;;6.60;99.90;;;;;;5074126;28;20166;-76
2023/02/25 05:04:36;;;;;;;13.70;1.88;;;6.40;99.90;;;;;;5074037;28;20171;-76
2023/02/25 05:07:03;;;;;;;7.63;1.90;;;6.40;99.90;;;;;;5074815;28;20214;-77
2023/02/25 05:09:29;;;;;;;5.45;1.52;;;6.50;99.90;;;;;;5073230;28;20166;-78
2023/02/25 05:11:54;;;;;;;20.15;1.77;;;6.40;99.90;;;;;;5074435;28;20163;-87
2023/02/25 05:14:20;;;;;;;10.20;1.50;;;6.50;99.90;;;;;;5073654;28;20190;-80
2023/02/25 05:16:46;;;;;;;5.82;1.75;;;6.50;99.90;;;;;;5074403;28;20162;-78
2023/02/25 05:19:21;;;;;;;7.43;2.30;;;6.60;99.90;;;;;;5074344;28;20658;-78
2023/02/25 05:21:47;;;;;;;12.32;1.70;;;6.60;99.90;;;;;;5073204;28;20528;-80
2023/02/25 05:24:12;;;;;;;6.70;2.28;;;6.50;99.90;;;;;;5073884;28;20179;-81
2023/02/25 05:26:38;;;;;;;6.85;1.70;;;6.50;99.90;;;;;;5073600;28;20250;-85
2023/02/25 05:29:04;;;;;;;11.90;2.08;;;6.50;99.90;;;;;;5073523;28;20496;-77
2023/02/25 05:31:30;;;;;;;11.40;1.67;;;6.40;99.90;;;;;;5073612;28;20166;-76
2023/02/25 05:33:55;;;;;;;8.82;2.22;;;6.30;99.90;;;;;;5073816;28;20563;-76
2023/02/25 05:36:21;;;;;;;8.30;1.95;;;6.30;99.90;;;;;;5073968;28;20181;-78
2023/02/25 05:38:47;;;;;;;9.82;1.88;;;6.50;99.90;;;;;;5073594;28;20166;-79
2023/02/25 05:41:14;;;;;;;12.00;1.55;;;6.60;99.90;;;;;;5073398;28;20255;-78
2023/02/25 05:43:40;;;;;;;10.82;2.15;;;6.60;99.90;;;;;;5073088;28;20201;-78
2023/02/25 05:46:10;;;;;;;5.30;1.27;;;6.30;99.90;;;;;;5073222;28;20208;-78
2023/02/25 05:48:37;;;;;;;11.43;1.88;;;6.40;99.90;;;;;;5073505;28;20700;-87
2023/02/25 05:51:09;;;;;;;14.30;1.73;;;6.40;99.90;;;;;;5072944;28;20532;-85
2023/02/25 05:53:36;;;;;;;15.55;1.73;;;6.50;99.90;;;;;;5073734;28;20293;-87
2023/02/25 05:56:06;;;;;;;10.00;1.70;;;6.70;99.90;;;;;;5073338;28;20166;-86
2023/02/25 05:58:33;;;;;;;5.15;1.75;;;6.70;99.90;;;;;;5073202;28;20170;-79
2023/02/25 06:00:59;;;;;;;9.00;1.52;;;6.60;99.90;;;;;;5073375;28;20170;-77
2023/02/25 06:03:25;;;;;;;7.40;1.35;;;6.50;99.90;;;;;;5073387;28;20207;-76
2023/02/25 06:05:52;;;;;;;9.23;2.00;;;6.60;99.90;;;;;;5073295;28;20246;-76
2023/02/25 06:08:18;;;;;;;4.20;1.33;;;6.50;99.90;;;;;;5073284;28;20190;-80
2023/02/25 06:10:43;;;;;;;23.05;1.58;;;6.30;99.90;;;;;;5074223;28;20167;-76
2023/02/25 06:13:10;;;;;;;20.27;2.08;;;6.40;99.90;;;;;;5073343;28;20197;-79
2023/02/25 06:15:37;;;;;;;9.95;2.22;;;6.30;99.90;;;;;;5072724;28;20626;-79
2023/02/25 06:18:03;;;;;;;11.18;2.03;;;6.20;99.90;;;;;;5072793;28;20737;-84
2023/02/25 06:20:28;;;;;;;4.95;1.33;;;6.30;99.90;;;;;;5072770;28;20253;-78
2023/02/25 06:22:54;;;;;;;14.35;2.38;;;6.30;99.90;;;;;;5071447;28;20190;-86
2023/02/25 06:25:20;;;;;;;7.93;1.52;;;6.20;99.90;;;;;;5072628;28;20178;-77
2023/02/25 06:27:46;;;;;;;10.00;1.83;;;6.20;99.90;;;;;;5072781;28;20202;-77
2023/02/25 06:30:12;;;;;;;4.90;1.70;;;6.40;99.90;;;;;;5072637;28;20566;-78
2023/02/25 06:32:38;;;;;;;9.45;1.85;;;6.40;99.90;;;;;;5072491;28;20257;-77
2023/02/25 06:35:05;;;;;;;11.38;1.80;;;6.50;99.90;;;;;;5072609;28;20166;-78
2023/02/25 06:37:31;;;;;;;9.38;1.38;;;6.60;99.90;;;;;;5072472;28;20158;-78
2023/02/25 06:39:57;;;;;;;11.25;1.92;;;6.70;99.90;;;;;;5072295;28;20577;-78
2023/02/25 06:42:22;;;;;;;8.77;1.50;;;6.80;99.90;;;;;;5071115;28;20181;-79
2023/02/25 06:44:48;;;;;;;14.60;2.42;;;6.60;99.90;;;;;;5072199;28;20171;-78
2023/02/25 06:47:14;;;;;;;11.65;2.22;;;6.20;99.90;;;;;;5072290;28;20214;-79
2023/02/25 06:49:39;;;;;;;7.60;1.50;;;6.20;99.90;;;;;;5072484;28;20162;-77
2023/02/25 06:52:05;;;;;;;11.02;2.10;;;6.10;99.90;;;;;;5070777;28;20174;-78
2023/02/25 06:54:30;;;;;;;6.85;2.03;;;6.20;99.90;;;;;;5071817;28;20241;-78
2023/02/25 06:56:56;;;;;;;12.32;1.83;;;6.20;99.90;;;;;;5072274;28;20210;-77
2023/02/25 06:59:22;;;;;;;10.27;1.73;;;6.20;99.90;;;;;;5072183;28;20166;-78
2023/02/25 07:01:47;;;;;;;7.93;1.85;;;6.10;99.90;;;;;;5072412;28;20686;-75
2023/02/25 07:04:15;;;;;;;3.95;1.50;;;6.10;99.90;;;;;;5072355;28;20194;-76
2023/02/25 07:06:41;;;;;;;11.13;1.80;;;6.20;99.90;;;;;;5072320;28;20209;-85
2023/02/25 07:09:06;;;;;;;8.32;2.20;;;6.20;99.90;;;;;;5072471;28;20159;-88
2023/02/25 07:11:33;;;;;;;11.68;2.33;;;6.10;99.90;;;;;;5071368;28;20556;-84
2023/02/25 07:13:59;;;;;;;22.50;2.03;;;6.10;99.90;;;;;;5072822;28;20536;-79
2023/02/25 07:16:26;;;;;;;4.95;1.63;;;6.20;99.90;;;;;;5070356;28;20278;-79
2023/02/25 07:18:51;;;;;;;7.53;1.50;;;6.30;99.90;;;;;;5072013;28;20710;-78
2023/02/25 07:21:18;;;;;;;18.75;2.00;;;6.30;99.90;;;;;;5071703;28;20167;-79
2023/02/25 07:23:45;;;;;;;8.77;2.15;;;6.20;99.90;;;;;;5072374;28;20654;-78
2023/02/25 07:26:12;;;;;;;8.82;1.85;;;6.20;99.90;;;;;;5072171;28;20214;-78
2023/02/25 07:28:38;;;;;;;6.85;1.50;;;6.20;99.90;;;;;;5071219;28;20198;-79
2023/02/25 07:31:13;;;;;;;5.00;1.20;;;6.30;99.90;;;;;;5072326;28;20163;-78
2023/02/25 07:33:40;;;;;;;12.68;2.83;;;6.20;99.90;;;;;;5074453;28;20182;-79
2023/02/25 07:36:05;;;;;;;13.65;1.92;;;6.30;99.90;;;;;;5075591;28;20173;-78
2023/02/25 07:38:31;;;;;;;6.25;1.50;;;6.20;99.90;;;;;;5075722;28;20170;-78
2023/02/25 07:41:01;;;;;;;13.80;2.20;;;6.30;99.90;;;;;;5075756;28;20171;-78
2023/02/25 07:43:29;;;;;;;11.32;1.92;;;6.30;99.90;;;;;;5075653;28;20183;-85
2023/02/25 07:45:56;;;;;;;5.10;1.52;;;6.30;99.90;;;;;;5075262;28;20198;-78
2023/02/25 07:48:22;;;;;;;4.97;1.63;;;6.50;99.90;;;;;;5075253;28;20175;-78
2023/02/25 07:50:47;;;;;;;8.35;1.67;;;6.50;99.90;;;;;;5075251;28;20173;-79
2023/02/25 07:53:13;;;;;;;19.30;2.75;;;6.50;99.90;;;;;;5075195;28;20205;-85
2023/02/25 07:55:43;;;;;;;5.15;1.20;;;6.60;99.90;;;;;;5074983;28;20224;-81
2023/02/25 07:58:09;;;;;;;5.85;1.60;;;6.70;99.90;;;;;;5073967;28;20258;-80
2023/02/25 08:00:37;;;;;;;8.80;1.70;;;6.70;99.90;;;;;;5076325;28;20169;-81
2023/02/25 08:03:03;;;;;;;17.23;1.83;;;6.90;99.90;;;;;;5075173;28;20178;-80
2023/02/25 08:05:32;;;;;;;6.45;1.67;;;6.80;99.90;;;;;;5075479;28;20163;-78
2023/02/25 08:07:58;;;;;;;9.57;1.95;;;6.70;99.90;;;;;;5074912;28;20174;-80
2023/02/25 08:10:23;;;;;;;8.77;1.48;;;6.60;99.90;;;;;;5075057;28;20205;-80
2023/02/25 08:12:49;;;;;;;16.75;2.15;;;6.80;99.90;;;;;;5070079;28;20194;-80
2023/02/25 08:15:14;;;;;;;7.40;2.33;;;6.90;99.90;;;;;;5074481;28;20163;-82
2023/02/25 08:17:40;;;;;;;7.47;2.50;;;6.80;99.90;;;;;;5080869;28;20177;-80
2023/02/25 08:20:07;;;;;;;9.60;1.65;;;6.70;99.90;;;;;;5096147;28;20189;-79
2023/02/25 08:22:33;;;;;;;7.00;1.90;;;6.70;99.90;;;;;;5089582;28;20224;-80
2023/02/25 08:24:59;;;;;;;17.08;1.58;;;6.90;99.90;;;;;;5094807;28;20263;-78
2023/02/25 08:27:25;;;;;;;6.78;2.08;;;7.20;99.90;;;;;;5095181;28;20253;-80
2023/02/25 08:29:50;;;;;;;12.57;2.13;;;7.50;99.90;;;;;;5086163;28;20249;-80
2023/02/25 08:32:16;;;;;;;7.00;1.88;;;7.60;99.90;;;;;;5054383;28;20253;-82
2023/02/25 08:34:42;;;;;;;9.13;1.70;;;7.60;99.90;;;;;;5071038;28;20262;-82
2023/02/25 08:37:10;;;;;;;9.50;1.85;;;7.50;99.90;;;;;;5068128;28;20351;-78
2023/02/25 08:39:36;;;;;;;5.70;1.33;;;7.30;99.90;;;;;;5070744;28;20167;-80
2023/02/25 08:42:02;;;;;;;11.00;2.08;;;7.40;99.90;;;;;;5060828;28;20207;-77
2023/02/25 08:44:28;;;;;;;6.35;1.70;;;7.10;99.90;;;;;;5052243;28;20210;-78
2023/02/25 08:46:53;;;;;;;4.13;0.95;;;7.10;99.90;;;;;;5052839;28;20211;-81
2023/02/25 08:49:19;;;;;;;5.63;1.05;;;7.00;99.90;;;;;;5053073;28;20246;-79
2023/02/25 08:51:51;;;;;;;8.63;1.80;;;7.00;99.90;;;;;;5073184;28;20638;-88
2023/02/25 08:54:17;;;;;;;5.95;1.40;;;7.00;99.90;;;;;;5074058;28;20182;-86
2023/02/25 08:56:49;;;;;;;6.63;1.20;;;7.00;99.90;;;;;;5059726;28;20179;-81
2023/02/25 08:59:19;;;;;;;14.20;1.60;;;6.90;99.90;;;;;;5058711;28;20176;-85
2023/02/25 09:01:44;;;;;;;10.50;1.13;;;6.90;99.90;;;;;;5061183;28;20173;-81
2023/02/25 09:04:20;;;;;;;11.55;1.70;;;6.90;99.90;;;;;;5064912;28;20263;-79
2023/02/25 09:06:46;;;;;;;9.02;1.35;;;7.00;99.90;;;;;;5061866;28;20281;-87
2023/02/25 09:09:16;;;;;;;6.85;1.45;;;7.30;99.90;;;;;;5069959;28;20197;-80
2023/02/25 09:11:42;;;;;;;8.90;1.75;;;7.50;99.90;;;;;;5072057;28;20193;-85
2023/02/25 09:14:09;;;;;;;4.03;1.50;;;7.90;99.90;;;;;;5074385;28;20679;-83
2023/02/25 09:16:35;;;;;;;5.95;1.70;;;8.00;99.90;;;;;;5057929;28;20179;-83
2023/02/25 09:19:01;;;;;;;7.25;1.20;;;7.90;99.90;;;;;;5053099;28;20175;-80
2023/02/25 09:21:26;;;;;;;3.30;0.88;;;7.60;99.90;;;;;;5055428;28;20228;-81
2023/02/25 09:23:54;;;;;;;6.07;1.67;;;7.30;99.90;;;;;;5074468;28;20244;-84
2023/02/25 09:26:21;;;;;;;7.10;1.48;;;7.00;99.90;;;;;;5069318;28;20667;-85
2023/02/25 09:28:47;;;;;;;10.48;1.17;;;6.70;99.90;;;;;;5054807;28;20194;-83
2023/02/25 09:31:14;;;;;;;9.07;1.38;;;6.70;99.90;;;;;;5069322;28;20159;-84
2023/02/25 09:33:42;;;;;;;19.50;1.70;;;6.60;99.90;;;;;;5069690;28;20194;-83
2023/02/25 09:36:13;;;;;;;13.27;1.25;;;6.60;99.90;;;;;;5075511;28;20170;-81
2023/02/25 09:38:40;;;;;;;11.10;1.38;;;6.60;99.90;;;;;;5053651;28;20179;-87
2023/02/25 09:41:26;;;;;;;4.68;0.82;;;6.60;99.90;;;;;;5051671;28;20599;-81
2023/02/25 09:44:05;;;;;;;13.82;1.58;;;6.60;99.90;;;;;;5052218;28;20217;-81
2023/02/25 09:46:33;;;;;;;6.75;1.17;;;6.80;99.90;;;;;;5053322;28;20207;-83
2023/02/25 09:49:08;;;;;;;3.60;1.00;;;6.90;99.90;;;;;;5051956;28;20171;-79
2023/02/25 09:51:43;;;;;;;10.52;2.03;;;6.90;99.90;;;;;;5053172;28;20220;-80
2023/02/25 09:54:11;;;;;;;15.27;1.92;;;7.00;99.90;;;;;;5051424;28;20198;-81
2023/02/25 09:56:37;;;;;;;7.75;1.08;;;7.10;99.90;;;;;;5052989;28;20178;-78
2023/02/25 09:59:13;;;;;;;5.88;1.10;;;7.20;99.90;;;;;;5052130;28;20650;-84
2023/02/25 10:02:05;;;;;;;11.38;1.65;;;7.30;99.90;;;;;;5054177;28;20178;-83
2023/02/25 10:04:42;;;;;;;20.92;1.85;;;7.30;99.90;;;;;;5053537;28;20198;-85
2023/02/25 10:07:34;;;;;;;11.63;1.60;;;7.30;99.90;;;;;;5051977;28;20453;-78
2023/02/25 10:10:38;;;;;;;15.45;2.13;;;7.50;99.90;;;;;;5053559;28;20197;-86
2023/02/25 10:13:25;;;;;;;13.70;2.42;;;7.60;99.90;;;;;;5061545;28;20225;-83
2023/02/25 10:16:01;;;;;;;8.63;1.05;;;7.50;99.90;;;;;;5051942;28;20175;-80
2023/02/25 10:18:46;;;;;;;5.97;1.38;;;7.40;99.90;;;;;;5052207;28;20211;-82
2023/02/25 10:21:40;;;;;;;20.25;1.52;;;7.50;99.90;;;;;;5053349;28;20319;-87
2023/02/25 10:24:11;;;;;;;36.67;3.30;;;7.90;99.90;;;;;;5052766;28;20191;-79
2023/02/25 10:26:47;;;;;;;9.02;1.52;;;8.40;99.90;;;;;;5052762;28;20207;-85
2023/02/25 10:29:27;;;;;;;9.80;1.50;;;8.50;99.90;;;;;;5052667;28;20190;-83
2023/02/25 10:31:58;;;;;;;5.55;1.42;;;8.80;99.90;;;;;;5053248;28;20170;-79
2023/02/25 10:34:26;;;;;;;11.90;1.55;;;8.90;99.90;;;;;;5053078;28;20269;-87
2023/02/25 10:36:58;;;;;;;10.27;1.75;;;8.50;99.90;;;;;;5053729;28;20631;-87
2023/02/25 10:39:25;;;;;;;15.73;1.95;;;8.30;99.90;;;;;;5052984;28;20224;-80
2023/02/25 10:41:51;;;;;;;17.90;2.38;;;8.10;99.90;;;;;;5052517;28;20639;-88
2023/02/25 10:44:17;;;;;;;15.38;1.80;;;8.10;99.90;;;;;;5052577;28;20194;-85
2023/02/25 10:47:00;;;;;;;7.80;1.50;;;7.80;99.90;;;;;;5052189;28;20287;-81
2023/02/25 10:49:28;;;;;;;7.80;2.20;;;7.60;99.90;;;;;;5053385;28;20211;-76
2023/02/25 10:51:59;;;;;;;14.18;2.28;;;7.40;99.90;;;;;;5069674;28;20197;-81
2023/02/25 10:54:24;;;;;;;7.20;1.48;;;7.30;99.90;;;;;;5072184;28;20545;-83
2023/02/25 10:56:51;;;;;;;3.50;1.00;;;7.30;99.90;;;;;;5072861;28;20248;-80
2023/02/25 10:59:37;;;;;;;6.07;1.25;;;6.90;99.90;;;;;;5072670;28;20167;-80
2023/02/25 11:02:20;;;;;;;5.35;0.95;;;7.10;99.90;;;;;;5074078;28;20162;-81
2023/02/25 11:04:48;;;;;;;6.57;1.17;;;7.00;99.90;;;;;;5073701;28;20650;-80
2023/02/25 11:07:34;;;;;;;8.70;0.88;;;7.20;99.90;;;;;;5073868;28;20214;-87
2023/02/25 11:10:20;;;;;;;2.75;1.30;;;7.20;99.90;;;;;;5077884;28;20173;-83
2023/02/25 11:12:49;;;;;;;15.32;1.50;;;6.90;99.90;;;;;;5076698;28;20583;-85
2023/02/25 11:15:24;;;;;;;11.32;1.77;;;6.90;99.90;;;;;;5077664;28;20174;-82
2023/02/25 11:17:52;;;;;;;33.10;2.83;;;6.90;99.90;;;;;;5077253;28;20618;-84
2023/02/25 11:20:26;;;;;;;17.17;2.20;;;7.10;99.90;;;;;;5077812;28;20163;-78
2023/02/25 11:22:54;;;;;;;4.63;1.23;;;7.20;99.90;;;;;;5074957;28;20192;-86
2023/02/25 11:25:39;;;;;;;12.77;1.38;;;7.40;99.90;;;;;;5076793;28;20169;-80
2023/02/25 11:28:15;;;;;;;5.03;1.33;;;7.50;99.90;;;;;;5076546;28;20228;-83
2023/02/25 11:30:41;;;;;;;11.85;1.73;;;7.60;99.90;;;;;;5078119;28;20162;-81
2023/02/25 11:33:25;;;;;;;21.05;1.77;;;7.60;99.90;;;;;;5076056;28;20188;-84
2023/02/25 11:35:56;;;;;;;26.13;1.77;;;7.70;99.90;;;;;;5075681;28;20181;-79
2023/02/25 11:38:34;;;;;;;12.82;2.08;;;7.90;99.90;;;;;;5076218;28;20192;-85
2023/02/25 11:41:01;;;;;;;7.85;2.70;;;8.20;99.90;;;;;;5075645;28;20174;-83
2023/02/25 11:43:37;;;;;;;7.43;1.70;;;8.30;99.90;;;;;;5076346;28;20235;-80
2023/02/25 11:46:12;;;;;;;19.30;2.50;;;8.50;99.90;;;;;;5081514;28;20198;-84
2023/02/25 11:48:52;;;;;;;19.88;2.30;;;8.80;99.90;;;;;;5087400;28;20220;-77
2023/02/25 11:51:18;;;;;;;14.80;1.67;;;8.90;99.90;;;;;;5087160;28;20209;-78
2023/02/25 11:53:46;;;;;;;10.00;2.65;;;9.00;99.90;;;;;;5086395;28;20190;-78
2023/02/25 11:56:29;;;;;;;14.80;2.35;;;9.00;99.90;;;;;;5087852;28;20166;-83
2023/02/25 11:59:16;;;;;;;11.00;1.88;;;9.20;99.90;;;;;;5087370;28;20163;-80
2023/02/25 12:01:59;;;;;;;11.90;3.05;;;8.90;99.90;;;;;;5078412;28;20213;-78
2023/02/25 12:05:02;;;;;;;8.80;1.77;;;8.80;99.90;;;;;;5074785;28;20309;-81
2023/02/25 12:08:05;;;;;;;6.45;1.52;;;8.20;99.90;;;;;;5074946;28;20237;-79
2023/02/25 12:10:54;;;;;;;4.20;0.95;;;7.90;99.90;;;;;;5074828;28;20509;-78
2023/02/25 12:13:51;;;;;;;13.95;1.20;;;7.30;99.90;;;;;;5074642;28;20186;-86
2023/02/25 12:16:50;;;;;;;2.45;1.27;;;6.90;99.90;;;;;;5075289;28;20171;-80
2023/02/25 12:19:52;;;;;;;5.10;1.00;;;6.40;99.90;;;;;;5074221;28;20227;-79
2023/02/25 12:22:55;;;;;;;6.25;1.67;;;6.30;99.90;;;;;;5076429;28;20242;-81
2023/02/25 12:25:48;;;;;;;2.78;1.25;;;6.40;99.90;;;;;;5076821;28;20250;-78
2023/02/25 12:28:50;;;;;;;8.98;1.08;;;6.40;99.90;;;;;;5073772;28;20194;-79
2023/02/25 12:31:53;;;;;;;4.63;1.10;;;6.50;99.90;;;;;;5074872;28;20162;-77
2023/02/25 12:34:25;;;;;;;2.15;0.88;;;6.50;99.90;;;;;;5073185;28;20200;-78
2023/02/25 12:37:19;;;;;;;5.68;1.30;;;6.70;99.90;;;;;;5075090;28;20166;-78
2023/02/25 12:40:25;;;;;;;11.52;0.98;;;6.80;99.90;;;;;;5075173;28;20504;-78
2023/02/25 12:43:14;;;;;;;8.85;1.02;;;6.90;99.90;;;;;;5074009;28;20187;-83
2023/02/25 12:46:09;;;;;;;8.07;1.38;;;7.00;99.90;;;;;;5074536;28;20253;-82
2023/02/25 12:49:04;;;;;;;11.55;1.27;;;7.00;99.90;;;;;;5074322;28;20205;-79
2023/02/25 12:51:57;;;;;;;9.13;1.85;;;7.10;99.90;;;;;;5074670;28;20220;-80
2023/02/25 12:55:13;;;;;;;18.60;1.67;;;7.20;99.90;;;;;;5073885;28;20198;-78
2023/02/25 12:57:49;;;;;;;5.35;1.20;;;7.40;99.90;;;;;;5073437;28;20202;-79
2023/02/25 13:00:33;;;;;;;8.35;2.05;;;7.50;99.90;;;;;;5072903;28;20166;-79
2023/02/25 13:03:38;;;;;;;7.13;1.52;;;7.80;99.90;;;;;;5073655;28;20552;-79
2023/02/25 13:06:15;;;;;;;8.35;1.48;;;8.30;99.90;;;;;;5073721;28;20515;-78
2023/02/25 13:09:10;;;;;;;8.25;1.63;;;8.60;99.90;;;;;;5073875;28;20251;-81
2023/02/25 13:11:51;;;;;;;9.68;1.75;;;8.90;99.90;;;;;;5073269;28;20646;-78
2023/02/25 13:14:25;;;;;;;7.38;1.83;;;9.30;99.90;;;;;;5073928;28;20178;-76
2023/02/25 13:16:59;;;;;;;9.43;1.42;;;9.20;99.90;;;;;;5073897;28;20514;-76